createdAt,value
2023-03-23T15:58:23.477Z,17.65
2023-03-23T16:00:53.419Z,23.50
2023-03-23T16:03:27.760Z,21.85
2023-03-23T16:05:57.779Z,22.65
2023-03-23T16:08:27.613Z,23.73
2023-03-23T16:10:55.840Z,20.45
2023-03-23T16:13:24.393Z,20.17
2023-03-23T16:15:52.550Z,24.63
2023-03-23T16:18:22.993Z,23.33
2023-03-23T16:20:51.374Z,21.20
2023-03-23T16:23:19.652Z,21.25
2023-03-23T16:25:47.195Z,21.55
2023-03-23T16:28:15.556Z,19.83
2023-03-23T16:30:45.618Z,22.90
2023-03-23T16:33:13.961Z,25.88
2023-03-23T16:35:42.925Z,22.50
2023-03-23T16:38:16.415Z,21.30
2023-03-23T16:40:46.053Z,25.75
2023-03-23T16:43:14.565Z,23.67
2023-03-23T16:45:44.786Z,24.83
2023-03-23T16:48:16.059Z,24.13
2023-03-23T16:50:45.546Z,24.38
2023-03-23T16:53:13.210Z,18.88
2023-03-23T16:55:42.224Z,21.52
2023-03-23T16:58:16.884Z,20.08
2023-03-23T17:00:49.503Z,17.25
2023-03-23T17:03:19.576Z,18.42
2023-03-23T17:05:51.719Z,19.77
2023-03-23T17:08:21.117Z,29.25
2023-03-23T17:10:49.135Z,25.63
2023-03-23T17:13:18.127Z,28.38
2023-03-23T17:15:47.645Z,27.77
2023-03-23T17:18:16.634Z,20.27
2023-03-23T17:20:44.855Z,22.23
2023-03-23T17:23:13.400Z,23.05
2023-03-23T17:25:42.554Z,18.67
2023-03-23T17:28:10.694Z,28.08
2023-03-23T17:30:44.161Z,31.65
2023-03-23T17:33:12.978Z,18.38
2023-03-23T17:35:42.120Z,23.30
2023-03-23T17:38:09.999Z,21.73
2023-03-23T17:40:38.571Z,25.27
2023-03-23T17:43:07.153Z,22.58
2023-03-23T17:45:36.590Z,23.10
2023-03-23T17:48:07.918Z,29.25
2023-03-23T17:50:36.823Z,26.85
2023-03-23T17:53:04.637Z,22.95
2023-03-23T17:55:32.318Z,27.38
2023-03-23T17:58:00.792Z,24.02
2023-03-23T18:00:28.792Z,26.17
2023-03-23T18:02:57.126Z,23.75
2023-03-23T18:05:27.862Z,28.70
2023-03-23T18:07:55.876Z,24.75
2023-03-23T18:10:23.820Z,21.50
2023-03-23T18:12:52.603Z,26.20
2023-03-23T18:15:20.830Z,32.78
2023-03-23T18:17:51.192Z,35.17
2023-03-23T18:20:19.747Z,30.65
2023-03-23T18:22:49.316Z,25.45
2023-03-23T18:25:17.368Z,27.60
2023-03-23T18:27:46.381Z,25.55
2023-03-23T18:30:14.668Z,32.10
2023-03-23T18:32:42.916Z,35.55
2023-03-23T18:35:11.340Z,29.83
2023-03-23T18:37:39.750Z,30.08
2023-03-23T18:40:12.807Z,26.00
2023-03-23T18:42:45.074Z,28.58
2023-03-23T18:45:13.498Z,26.27
2023-03-23T18:47:41.700Z,33.25
2023-03-23T18:50:11.608Z,21.95
2023-03-23T18:52:40.348Z,26.08
2023-03-23T18:55:09.363Z,34.05
2023-03-23T18:57:40.320Z,24.90
2023-03-23T19:00:10.147Z,38.50
2023-03-23T19:02:39.698Z,36.75
2023-03-23T19:05:08.697Z,45.53
2023-03-23T19:07:38.497Z,49.30
2023-03-23T19:10:06.613Z,56.90
2023-03-23T19:12:34.690Z,46.97
2023-03-23T19:15:02.891Z,37.08
2023-03-23T19:17:31.166Z,32.65
2023-03-23T19:19:59.974Z,30.30
2023-03-23T19:22:28.289Z,31.75
2023-03-23T19:24:56.271Z,37.00
2023-03-23T19:27:24.489Z,27.25
2023-03-23T19:29:52.648Z,29.75
2023-03-23T19:32:21.022Z,40.72
2023-03-23T19:34:51.252Z,36.95
2023-03-23T19:37:19.299Z,42.97
2023-03-23T19:39:47.102Z,35.03
2023-03-23T19:42:18.516Z,35.83
2023-03-23T19:44:47.507Z,41.00
2023-03-23T19:47:16.451Z,36.90
2023-03-23T19:49:44.952Z,35.17
2023-03-23T19:52:14.999Z,39.08
2023-03-23T19:54:45.350Z,38.63
2023-03-23T19:57:14.296Z,43.47
2023-03-23T19:59:42.840Z,38.85
2023-03-23T20:02:13.693Z,32.90
2023-03-23T20:04:43.718Z,42.92
2023-03-23T20:07:12.874Z,37.53
2023-03-23T20:09:41.188Z,37.33
2023-03-23T20:12:09.966Z,45.00
2023-03-23T20:14:44.121Z,43.65
2023-03-23T20:17:14.580Z,41.20
2023-03-23T20:19:43.437Z,33.53
2023-03-23T20:22:11.940Z,40.00
2023-03-23T20:24:40.149Z,44.50
2023-03-23T20:27:08.171Z,43.65
2023-03-23T20:29:36.520Z,35.65
2023-03-23T20:32:04.202Z,55.72
2023-03-23T20:34:32.298Z,44.10
2023-03-23T20:37:02.751Z,33.65
2023-03-23T20:39:33.557Z,33.63
2023-03-23T20:42:04.418Z,35.15
2023-03-23T20:44:35.492Z,35.35
2023-03-23T20:47:04.702Z,31.60
2023-03-23T20:49:34.859Z,31.88
2023-03-23T20:52:04.368Z,42.85
2023-03-23T20:54:32.305Z,32.08
2023-03-23T20:57:01.210Z,35.92
2023-03-23T20:59:29.669Z,38.08
2023-03-23T21:01:57.254Z,36.10
2023-03-23T21:04:27.626Z,48.75
2023-03-23T21:06:56.096Z,30.90
2023-03-23T21:09:25.514Z,32.05
2023-03-23T21:11:54.363Z,35.78
2023-03-23T21:14:22.017Z,33.58
2023-03-23T21:16:50.656Z,30.55
2023-03-23T21:19:20.150Z,46.05
2023-03-23T21:21:56.850Z,35.50
2023-03-23T21:24:29.619Z,39.78
2023-03-23T21:27:00.494Z,35.45
2023-03-23T21:29:29.324Z,30.65
2023-03-23T21:34:29.057Z,33.53
2023-03-23T21:36:57.192Z,32.70
2023-03-23T21:39:24.950Z,28.63
2023-03-23T21:41:53.075Z,29.02
2023-03-23T21:44:21.664Z,32.15
2023-03-23T21:46:52.491Z,35.53
2023-03-23T21:49:20.785Z,34.33
2023-03-23T21:51:49.646Z,32.30
2023-03-23T21:54:17.684Z,28.30
2023-03-23T21:56:45.266Z,34.75
2023-03-23T21:59:13.521Z,38.85
2023-03-23T22:01:41.654Z,42.45
2023-03-23T22:04:28.052Z,35.10
2023-03-23T22:07:15.375Z,41.25
2023-03-23T22:09:45.036Z,43.95
2023-03-23T22:12:13.349Z,36.63
2023-03-23T22:14:41.840Z,37.75
2023-03-23T22:17:09.689Z,40.38
2023-03-23T22:19:39.468Z,40.28
2023-03-23T22:22:07.590Z,39.72
2023-03-23T22:24:36.076Z,36.67
2023-03-23T22:27:04.351Z,32.75
2023-03-23T22:29:32.379Z,38.97
2023-03-23T22:32:00.481Z,35.80
2023-03-23T22:34:28.700Z,37.38
2023-03-23T22:36:57.058Z,36.92
2023-03-23T22:39:25.962Z,43.10
2023-03-23T22:41:53.630Z,38.10
2023-03-23T22:44:21.280Z,37.47
2023-03-23T22:46:49.114Z,38.95
2023-03-23T22:49:17.238Z,37.65
2023-03-23T22:51:45.716Z,36.72
2023-03-23T22:54:13.744Z,32.83
2023-03-23T22:56:41.827Z,33.67
2023-03-23T22:59:11.112Z,37.90
2023-03-23T23:01:39.475Z,42.90
2023-03-23T23:04:07.770Z,41.53
2023-03-23T23:06:35.787Z,40.03
2023-03-23T23:09:03.919Z,36.45
2023-03-23T23:11:31.602Z,38.67
2023-03-23T23:13:59.339Z,39.42
2023-03-23T23:16:29.360Z,39.00
2023-03-23T23:18:57.889Z,43.53
2023-03-23T23:21:26.841Z,39.75
2023-03-23T23:23:55.091Z,41.85
2023-03-23T23:26:23.260Z,35.65
2023-03-23T23:28:51.680Z,44.20
2023-03-23T23:31:29.332Z,41.33
2023-03-23T23:33:59.840Z,42.65
2023-03-23T23:36:30.332Z,40.13
2023-03-23T23:39:00.688Z,50.92
2023-03-23T23:41:30.278Z,43.45
2023-03-23T23:43:58.374Z,43.00
2023-03-23T23:46:26.735Z,35.88
2023-03-23T23:48:54.508Z,49.15
2023-03-23T23:51:27.256Z,41.38
2023-03-23T23:53:59.276Z,44.07
2023-03-23T23:56:28.351Z,46.58
2023-03-23T23:58:57.173Z,38.72
